Time;durP1;ratioP1;P1;durP2;ratioP2;P2;SDS_P1;SDS_P2;PMS_P1;PMS_P2;Temp;Humidity;BMP_temperature;BMP_pressure;BME280_temperature;BME280_humidity;BME280_pressure;Samples;Min_cycle;Max_cycle;Signal;HPM_P1;HPM_P2
2021/12/09 00:01:06;;;;;;;14.70;10.27;;;;;;;1.33;100.00;93735.84;4992882;28;20179;-61
2021/12/09 00:03:36;;;;;;;14.77;10.50;;;;;;;1.30;100.00;93734.72;4993466;28;20203;-63
2021/12/09 00:06:04;;;;;;;14.03;9.87;;;;;;;1.27;100.00;93740.09;4992946;28;20178;-62
2021/12/09 00:08:31;;;;;;;13.03;9.37;;;;;;;1.29;100.00;93746.63;4992939;28;20178;-75
2021/12/09 00:10:59;;;;;;;12.00;8.57;;;;;;;1.27;100.00;93748.91;4995192;28;20175;-67
2021/12/09 00:13:27;;;;;;;11.80;8.97;;;;;;;1.27;100.00;93748.91;4996871;28;20198;-66
2021/12/09 00:15:53;;;;;;;22.53;14.10;;;;;;;1.27;100.00;93748.16;4997443;28;20189;-66
2021/12/09 00:18:19;;;;;;;11.53;7.80;;;;;;;1.27;100.00;93740.84;4996818;28;20186;-67
2021/12/09 00:20:45;;;;;;;10.77;7.90;;;;;;;1.28;100.00;93733.56;4996665;28;20174;-66
2021/12/09 00:23:10;;;;;;;12.07;8.10;;;;;;;1.31;100.00;93735.50;4996534;28;20210;-63
2021/12/09 00:25:36;;;;;;;10.10;8.03;;;;;;;1.32;100.00;93724.34;4997169;28;20181;-69
2021/12/09 00:28:03;;;;;;;9.73;7.17;;;;;;;1.34;100.00;93722.03;4996676;28;20185;-70
2021/12/09 00:30:30;;;;;;;9.37;7.27;;;;;;;1.34;100.00;93726.66;4996798;28;20272;-64
2021/12/09 00:32:55;;;;;;;11.33;7.93;;;;;;;1.32;100.00;93724.34;4996357;28;20178;-64
2021/12/09 00:35:27;;;;;;;9.60;7.00;;;;;;;1.34;100.00;93738.16;4997406;28;20266;-64
2021/12/09 00:37:57;;;;;;;10.43;7.43;;;;;;;1.38;100.00;93732.78;4997112;28;20194;-64
2021/12/09 00:40:23;;;;;;;9.60;6.70;;;;;;;1.41;100.00;93743.53;4996931;28;20246;-64
2021/12/09 00:42:49;;;;;;;8.80;7.07;;;;;;;1.40;100.00;93755.44;4996321;28;20205;-64
2021/12/09 00:45:14;;;;;;;9.10;6.93;;;;;;;1.38;100.00;93755.06;4996640;28;20213;-69
2021/12/09 00:47:40;;;;;;;8.97;6.83;;;;;;;1.39;100.00;93751.22;4996124;28;20227;-61
2021/12/09 00:50:06;;;;;;;8.00;6.23;;;;;;;1.35;100.00;93749.69;4996236;28;20177;-62
2021/12/09 00:52:31;;;;;;;9.87;7.70;;;;;;;1.34;100.00;93759.66;4996364;28;20174;-62
2021/12/09 00:54:59;;;;;;;8.07;6.17;;;;;;;1.36;100.00;93756.59;4996218;28;20181;-61
2021/12/09 00:57:25;;;;;;;9.43;6.77;;;;;;;1.33;100.00;93752.75;4996544;28;20197;-61
2021/12/09 00:59:51;;;;;;;7.90;6.37;;;;;;;1.35;100.00;93747.75;4995914;28;20198;-61
2021/12/09 01:02:17;;;;;;;9.77;7.37;;;;;;;1.35;100.00;93750.44;4995944;28;20241;-67
2021/12/09 01:04:45;;;;;;;8.43;6.83;;;;;;;1.38;100.00;93760.44;4995673;28;20181;-72
2021/12/09 01:07:10;;;;;;;8.20;6.27;;;;;;;1.40;100.00;93750.06;4995697;28;20260;-62
2021/12/09 01:09:36;;;;;;;7.90;6.53;;;;;;;1.40;100.00;93763.50;4995764;28;20247;-62
2021/12/09 01:12:03;;;;;;;7.50;6.00;;;;;;;1.38;100.00;93765.81;4997161;28;20174;-62
2021/12/09 01:14:28;;;;;;;8.40;6.47;;;;;;;1.35;100.00;93784.66;4996182;28;20174;-62
2021/12/09 01:16:53;;;;;;;9.27;6.87;;;;;;;1.33;100.00;93779.66;4996291;28;20280;-60
2021/12/09 01:19:19;;;;;;;7.97;5.77;;;;;;;1.38;100.00;93781.94;4995593;28;20179;-60
2021/12/09 01:21:44;;;;;;;9.37;6.70;;;;;;;1.36;100.00;93768.13;4995601;28;20238;-65
2021/12/09 01:24:10;;;;;;;7.40;6.20;;;;;;;1.40;100.00;93757.34;4995967;28;20242;-75
2021/12/09 01:26:36;;;;;;;6.87;5.90;;;;;;;1.35;100.00;93744.31;4996153;28;20690;-75
2021/12/09 01:29:09;;;;;;;7.70;5.90;;;;;;;1.36;100.00;93735.09;4995509;28;20191;-76
2021/12/09 01:31:38;;;;;;;7.03;5.80;;;;;;;1.30;100.00;93729.34;4995680;28;20196;-75
2021/12/09 01:34:05;;;;;;;7.57;5.70;;;;;;;1.27;100.00;93745.47;4996032;28;20225;-75
2021/12/09 01:36:33;;;;;;;7.87;5.83;;;;;;;1.24;100.00;93754.31;4996225;28;20179;-74
2021/12/09 01:39:00;;;;;;;7.00;5.40;;;;;;;1.23;100.00;93760.81;4996846;28;20178;-65
2021/12/09 01:41:25;;;;;;;6.00;5.30;;;;;;;1.20;100.00;93770.41;4995690;28;20183;-72
2021/12/09 01:43:51;;;;;;;5.87;4.87;;;;;;;1.17;100.00;93773.13;4995302;28;20208;-61
2021/12/09 01:46:20;;;;;;;7.20;5.60;;;;;;;1.15;100.00;93778.88;4995212;28;20178;-66
2021/12/09 01:48:48;;;;;;;7.03;6.23;;;;;;;1.15;100.00;93778.88;4995553;28;20229;-62
2021/12/09 01:51:14;;;;;;;6.67;5.70;;;;;;;1.17;100.00;93781.94;4996099;28;20220;-62
2021/12/09 01:53:40;;;;;;;6.57;5.73;;;;;;;1.19;100.00;93779.63;4995402;28;20190;-62
2021/12/09 01:56:12;;;;;;;6.43;5.20;;;;;;;1.17;100.00;93791.94;4995531;28;20183;-62
2021/12/09 01:58:38;;;;;;;7.53;5.20;;;;;;;1.16;100.00;93793.84;4994731;28;20270;-74
2021/12/09 02:01:05;;;;;;;5.60;5.00;;;;;;;1.16;100.00;93791.16;4995171;28;20209;-74
2021/12/09 02:03:31;;;;;;;6.47;5.23;;;;;;;1.13;100.00;93791.16;4994936;28;20212;-73
2021/12/09 02:05:57;;;;;;;6.10;5.30;;;;;;;1.13;100.00;93791.16;4995247;28;20176;-72
2021/12/09 02:08:22;;;;;;;5.40;4.70;;;;;;;1.11;100.00;93793.44;4995261;28;20174;-73
2021/12/09 02:10:49;;;;;;;5.40;4.50;;;;;;;1.10;100.00;93798.06;4995130;28;20178;-72
2021/12/09 02:13:16;;;;;;;6.40;4.83;;;;;;;1.09;100.00;93801.88;4994771;28;20187;-70
2021/12/09 02:15:41;;;;;;;6.17;4.83;;;;;;;1.07;100.00;93798.84;4995165;28;20174;-68
2021/12/09 02:18:08;;;;;;;5.53;4.93;;;;;;;1.09;100.00;93791.13;4994611;28;20184;-67
2021/12/09 02:21:12;;;;;;;5.50;4.73;;;;;;;1.06;100.00;93802.66;4994953;28;20183;-74
2021/12/09 02:23:41;;;;;;;5.03;4.33;;;;;;;1.05;100.00;93795.75;4977819;28;20227;-75
2021/12/09 02:26:06;;;;;;;6.27;5.10;;;;;;;1.07;100.00;93798.84;4977771;28;20182;-73
2021/12/09 02:28:32;;;;;;;4.37;3.97;;;;;;;1.05;100.00;93811.88;4977715;28;20293;-75
2021/12/09 02:30:58;;;;;;;5.17;4.67;;;;;;;1.05;100.00;93809.19;4977420;28;20265;-74
2021/12/09 02:33:23;;;;;;;5.00;4.33;;;;;;;1.06;100.00;93807.28;4976616;28;20297;-74
2021/12/09 02:35:48;;;;;;;7.73;5.97;;;;;;;1.06;100.00;93808.03;4977009;28;20225;-77
2021/12/09 02:38:14;;;;;;;5.50;4.37;;;;;;;1.04;100.00;93802.28;4977369;28;20190;-63
2021/12/09 02:40:40;;;;;;;5.17;4.20;;;;;;;1.07;100.00;93809.56;4977482;28;20288;-63
2021/12/09 02:43:08;;;;;;;4.70;4.23;;;;;;;1.07;100.00;93788.09;4977198;28;20268;-63
2021/12/09 02:45:34;;;;;;;5.00;4.50;;;;;;;1.05;100.00;93785.00;4977151;28;20189;-64
2021/12/09 02:48:00;;;;;;;5.07;4.57;;;;;;;1.04;100.00;93791.53;4976845;28;20243;-63
2021/12/09 02:50:25;;;;;;;5.40;4.80;;;;;;;1.02;100.00;93785.75;4977092;28;20216;-63
2021/12/09 02:52:51;;;;;;;4.93;4.43;;;;;;;1.04;100.00;93788.06;4976973;28;20184;-68
2021/12/09 02:55:16;;;;;;;5.47;4.97;;;;;;;1.04;100.00;93804.97;4992360;28;20192;-65
2021/12/09 02:57:42;;;;;;;5.63;4.97;;;;;;;1.03;100.00;93800.75;4993793;28;20178;-65
2021/12/09 03:00:10;;;;;;;5.33;4.83;;;;;;;1.03;100.00;93802.66;4993908;28;20192;-64
2021/12/09 03:02:35;;;;;;;5.27;4.73;;;;;;;1.04;100.00;93810.34;4993480;28;20205;-69
2021/12/09 03:05:03;;;;;;;5.33;4.83;;;;;;;1.03;100.00;93819.56;4994310;28;20231;-67
2021/12/09 03:07:33;;;;;;;5.17;4.67;;;;;;;1.02;100.00;93818.00;4993875;28;20205;-67
2021/12/09 03:10:25;;;;;;;6.13;5.53;;;;;;;1.02;100.00;93828.00;4994101;28;20167;-67
2021/12/09 03:12:54;;;;;;;5.33;4.70;;;;;;;1.01;100.00;93837.97;4993752;28;20256;-75
2021/12/09 03:15:20;;;;;;;5.67;5.17;;;;;;;1.01;100.00;93832.59;4993488;28;20177;-70
2021/12/09 03:17:47;;;;;;;5.50;5.00;;;;;;;1.00;100.00;93825.69;4994504;28;20165;-69
2021/12/09 03:20:15;;;;;;;6.50;5.90;;;;;;;0.99;100.00;93832.22;4993653;28;20174;-68
2021/12/09 03:22:41;;;;;;;5.97;5.37;;;;;;;0.98;100.00;93830.66;4993401;28;20201;-69
2021/12/09 03:25:11;;;;;;;6.30;5.70;;;;;;;1.00;100.00;93836.44;4993227;28;20174;-69
2021/12/09 03:27:37;;;;;;;6.57;5.27;;;;;;;1.03;100.00;93841.06;4993173;28;20176;-70
2021/12/09 03:30:06;;;;;;;6.23;5.30;;;;;;;1.04;100.00;93844.50;4993572;28;20181;-71
2021/12/09 03:32:34;;;;;;;5.50;5.00;;;;;;;1.04;100.00;93842.59;4992984;28;20517;-70
2021/12/09 03:35:02;;;;;;;6.17;5.43;;;;;;;1.04;100.00;93847.19;4990622;28;20185;-71
2021/12/09 03:37:27;;;;;;;6.23;5.30;;;;;;;1.03;100.00;93862.53;4992865;28;20232;-69
2021/12/09 03:39:54;;;;;;;6.20;5.60;;;;;;;1.02;100.00;93861.00;4993093;28;20184;-69
2021/12/09 03:42:24;;;;;;;6.27;5.57;;;;;;;1.03;100.00;93854.50;4993270;28;20202;-70
2021/12/09 03:44:50;;;;;;;6.13;5.53;;;;;;;1.05;100.00;93843.38;4996726;28;20213;-70
2021/12/09 03:47:19;;;;;;;5.57;5.03;;;;;;;1.07;100.00;93851.78;4999349;28;20312;-67
2021/12/09 03:50:07;;;;;;;7.13;5.77;;;;;;;1.07;100.00;93846.41;4999643;28;20174;-69
2021/12/09 03:52:32;;;;;;;5.80;5.20;;;;;;;1.03;100.00;93854.50;4963591;28;20195;-68
2021/12/09 03:54:58;;;;;;;6.60;5.93;;;;;;;1.04;100.00;93847.97;4963390;28;20193;-68
2021/12/09 03:57:24;;;;;;;6.07;5.47;;;;;;;1.03;100.00;93856.41;4963136;28;20288;-67
2021/12/09 03:59:49;;;;;;;5.83;5.23;;;;;;;0.97;100.00;93858.69;4963158;28;20301;-67
2021/12/09 04:02:15;;;;;;;6.43;5.80;;;;;;;0.99;100.00;93861.00;4962894;28;20216;-66
2021/12/09 04:04:41;;;;;;;6.80;5.77;;;;;;;0.99;100.00;93872.53;4963528;28;20178;-70
2021/12/09 04:07:06;;;;;;;6.33;5.63;;;;;;;0.99;100.00;93867.16;4963210;28;20186;-70
2021/12/09 04:09:32;;;;;;;6.43;5.80;;;;;;;0.98;100.00;93856.78;4963461;28;20194;-69
2021/12/09 04:11:58;;;;;;;6.90;6.03;;;;;;;0.95;100.00;93855.59;4963120;28;20234;-68
2021/12/09 04:14:24;;;;;;;6.10;5.50;;;;;;;0.96;100.00;93859.84;4963129;28;20209;-68
2021/12/09 04:16:50;;;;;;;6.73;5.93;;;;;;;0.99;100.00;93871.75;4963206;28;20209;-68
2021/12/09 04:19:16;;;;;;;7.93;6.10;;;;;;;1.04;100.00;93872.13;4962966;28;20196;-67
2021/12/09 04:21:43;;;;;;;8.83;6.07;;;;;;;1.07;100.00;93873.28;4963189;28;20184;-68
2021/12/09 04:24:10;;;;;;;17.23;10.23;;;;;;;1.08;100.00;93872.91;4990564;28;20188;-71
2021/12/09 04:26:44;;;;;;;15.90;10.17;;;;;;;1.09;100.00;93861.00;4999215;28;20212;-73
2021/12/09 04:29:11;;;;;;;9.77;7.83;;;;;;;1.08;100.00;93854.09;4999539;28;20184;-71
2021/12/09 04:31:38;;;;;;;6.70;5.97;;;;;;;1.08;100.00;93850.63;4999207;28;20188;-73
2021/12/09 04:34:04;;;;;;;8.80;7.30;;;;;;;1.06;100.00;93856.38;4999429;28;20631;-71
2021/12/09 04:36:29;;;;;;;9.30;7.17;;;;;;;1.08;100.00;93854.09;4999485;28;20178;-71
2021/12/09 04:38:54;;;;;;;7.63;6.47;;;;;;;1.06;100.00;93861.75;4999506;28;20193;-71
2021/12/09 04:41:20;;;;;;;9.43;6.77;;;;;;;1.05;100.00;93860.22;4999331;28;20272;-70
2021/12/09 04:43:46;;;;;;;10.40;6.97;;;;;;;1.07;100.00;93879.44;4999406;28;20319;-65
2021/12/09 04:46:13;;;;;;;8.47;6.73;;;;;;;1.09;100.00;93882.50;4999368;28;20181;-69
2021/12/09 04:48:38;;;;;;;8.17;6.87;;;;;;;1.12;100.00;93871.00;4999280;28;20224;-70
2021/12/09 04:51:04;;;;;;;8.63;7.13;;;;;;;1.12;100.00;93872.91;4999003;28;20202;-69
2021/12/09 04:53:30;;;;;;;10.67;7.73;;;;;;;1.15;100.00;93875.63;4999728;28;20188;-70
2021/12/09 04:55:56;;;;;;;10.67;8.03;;;;;;;1.16;100.00;93887.91;4997354;28;20182;-70
2021/12/09 04:58:23;;;;;;;24.57;16.07;;;;;;;1.15;100.00;93891.75;4996082;28;20195;-69
2021/12/09 05:00:49;;;;;;;12.10;9.17;;;;;;;1.14;100.00;93884.84;4996689;28;20188;-74
2021/12/09 05:03:15;;;;;;;11.07;7.50;;;;;;;1.14;100.00;93884.06;4996168;28;20210;-76
2021/12/09 05:05:44;;;;;;;8.10;6.50;;;;;;;1.15;100.00;93891.75;4995950;28;20176;-62
2021/12/09 05:08:14;;;;;;;8.83;6.77;;;;;;;1.09;100.00;93895.94;4996061;28;20182;-62
2021/12/09 05:13:29;;;;;;;8.00;6.17;;;;;;;1.08;100.00;93902.47;4997152;28;20177;-62
2021/12/09 05:15:56;;;;;;;7.37;6.23;;;;;;;1.05;100.00;93913.97;4995616;28;20192;-62
2021/12/09 05:18:24;;;;;;;8.00;6.60;;;;;;;1.06;100.00;93914.75;4995854;28;20192;-62
2021/12/09 05:20:49;;;;;;;8.90;6.77;;;;;;;1.06;100.00;93915.50;4995911;28;20315;-66
2021/12/09 05:23:17;;;;;;;9.00;7.23;;;;;;;1.06;100.00;93915.50;4996243;28;20205;-65
2021/12/09 05:25:44;;;;;;;8.60;6.83;;;;;;;1.05;100.00;93929.34;4995637;28;20182;-66
2021/12/09 05:28:11;;;;;;;8.53;7.10;;;;;;;1.05;100.00;93938.16;4996190;28;20185;-64
2021/12/09 05:30:40;;;;;;;8.80;6.63;;;;;;;1.06;100.00;93930.88;4995494;28;20178;-64
2021/12/09 05:33:06;;;;;;;8.23;6.70;;;;;;;1.08;100.00;93944.69;4995594;28;20184;-64
2021/12/09 05:35:33;;;;;;;7.53;6.73;;;;;;;1.09;100.00;93962.38;4995737;28;20180;-65
2021/12/09 05:37:59;;;;;;;8.00;6.43;;;;;;;1.07;100.00;93973.50;4995937;28;20178;-61
2021/12/09 05:40:27;;;;;;;7.67;6.43;;;;;;;1.07;100.00;93970.81;4995263;28;20176;-70
2021/12/09 05:42:52;;;;;;;11.13;7.17;;;;;;;1.10;100.00;93980.81;4978899;28;20206;-65
2021/12/09 05:45:18;;;;;;;8.73;6.43;;;;;;;1.09;100.00;93984.63;4995425;28;20181;-65
2021/12/09 05:47:43;;;;;;;8.50;6.33;;;;;;;1.10;100.00;93996.16;4995059;28;20272;-66
2021/12/09 05:50:11;;;;;;;9.40;6.97;;;;;;;1.11;100.00;93987.72;4995181;28;20265;-64
2021/12/09 05:52:36;;;;;;;8.70;6.70;;;;;;;1.13;100.00;93990.03;4995197;28;20208;-63
2021/12/09 05:55:03;;;;;;;6.97;5.63;;;;;;;1.09;100.00;93984.63;4995585;28;20177;-64
2021/12/09 05:57:28;;;;;;;9.03;6.57;;;;;;;1.09;100.00;93990.00;4995354;28;20193;-65
2021/12/09 05:59:55;;;;;;;9.43;6.87;;;;;;;1.11;100.00;93987.72;4994904;28;20197;-71
2021/12/09 06:02:21;;;;;;;9.07;6.03;;;;;;;1.11;100.00;93998.47;4994902;28;20206;-72
2021/12/09 06:04:46;;;;;;;7.70;6.00;;;;;;;1.10;100.00;93999.63;4994619;28;20264;-72
2021/12/09 06:07:14;;;;;;;7.83;5.90;;;;;;;1.09;100.00;94000.75;4994394;28;20204;-71
2021/12/09 06:09:40;;;;;;;7.73;5.90;;;;;;;1.08;100.00;94003.81;4993941;28;20176;-71
2021/12/09 06:12:06;;;;;;;9.13;6.83;;;;;;;1.10;100.00;93996.16;4994811;28;20213;-71
2021/12/09 06:14:32;;;;;;;10.83;6.57;;;;;;;1.08;100.00;93998.44;4994671;28;20211;-62
2021/12/09 06:16:58;;;;;;;7.23;5.73;;;;;;;1.05;100.00;93994.59;4994626;28;20265;-65
2021/12/09 06:19:23;;;;;;;8.07;5.73;;;;;;;1.06;100.00;94001.50;4994784;28;20182;-68
2021/12/09 06:21:49;;;;;;;7.53;5.63;;;;;;;1.07;100.00;94003.06;4994593;28;20180;-67
2021/12/09 06:24:15;;;;;;;31.77;21.77;;;;;;;1.09;100.00;94006.13;4994324;28;20182;-66
2021/12/09 06:26:40;;;;;;;15.63;10.73;;;;;;;1.11;100.00;94003.06;4994309;28;20187;-70
2021/12/09 06:29:07;;;;;;;8.90;6.20;;;;;;;1.08;100.00;94001.91;4994385;28;20169;-68
2021/12/09 06:31:34;;;;;;;7.40;4.87;;;;;;;1.08;100.00;94007.28;4994625;28;20547;-68
2021/12/09 06:33:59;;;;;;;7.30;5.13;;;;;;;1.09;100.00;94006.13;4994157;28;20170;-68
2021/12/09 06:36:25;;;;;;;7.10;5.00;;;;;;;1.09;100.00;94000.00;4994171;28;20192;-73
2021/12/09 06:38:51;;;;;;;15.03;7.83;;;;;;;1.12;100.00;93989.25;4994313;28;20274;-68
2021/12/09 06:41:16;;;;;;;7.67;5.67;;;;;;;1.14;100.00;93992.34;4993776;28;20182;-68
2021/12/09 06:43:42;;;;;;;9.90;6.87;;;;;;;1.12;100.00;93993.84;4994003;28;20279;-71
2021/12/09 06:46:11;;;;;;;9.90;7.20;;;;;;;1.12;100.00;93993.84;4994379;28;20190;-69
2021/12/09 06:48:38;;;;;;;7.57;5.70;;;;;;;1.13;100.00;94001.53;4994094;28;20231;-69
2021/12/09 06:51:05;;;;;;;7.67;6.27;;;;;;;1.15;100.00;94003.84;4994464;28;20237;-71
2021/12/09 06:53:32;;;;;;;6.20;5.27;;;;;;;1.15;100.00;93993.09;4993897;28;20696;-62
2021/12/09 06:55:58;;;;;;;6.67;4.90;;;;;;;1.19;100.00;93983.13;4994147;28;20181;-63
2021/12/09 06:58:25;;;;;;;6.50;4.27;;;;;;;1.11;100.00;93995.78;4993871;28;20196;-63
2021/12/09 07:00:51;;;;;;;5.50;3.93;;;;;;;1.12;100.00;93999.22;4994301;28;20174;-62
2021/12/09 07:03:20;;;;;;;8.60;4.50;;;;;;;1.11;100.00;93995.78;4994362;28;20205;-63
2021/12/09 07:05:45;;;;;;;12.80;8.60;;;;;;;1.14;100.00;94008.47;4993419;28;20250;-63
2021/12/09 07:08:11;;;;;;;4.80;3.80;;;;;;;1.15;100.00;94010.00;4994298;28;20241;-62
2021/12/09 07:10:37;;;;;;;4.77;4.27;;;;;;;1.15;100.00;94009.22;4994148;28;20178;-64
2021/12/09 07:13:04;;;;;;;6.93;4.00;;;;;;;1.12;100.00;94008.06;4993509;28;20272;-63
2021/12/09 07:15:30;;;;;;;5.27;4.33;;;;;;;1.12;100.00;94018.81;4993460;28;20193;-63
2021/12/09 07:17:56;;;;;;;7.63;5.40;;;;;;;1.14;100.00;94024.59;4993435;28;20182;-62
2021/12/09 07:20:24;;;;;;;6.07;3.90;;;;;;;1.14;100.00;94013.84;4993469;28;20180;-63
2021/12/09 07:22:50;;;;;;;6.37;4.50;;;;;;;1.18;100.00;94020.00;4993520;28;20197;-62
2021/12/09 07:25:19;;;;;;;4.13;3.40;;;;;;;1.19;100.00;94026.13;4993316;28;20185;-62
2021/12/09 07:27:44;;;;;;;3.87;3.43;;;;;;;1.22;100.00;94036.13;4993735;28;20205;-67
2021/12/09 07:30:11;;;;;;;7.63;5.40;;;;;;;1.18;100.00;94033.44;4993412;28;20180;-67
2021/12/09 07:32:37;;;;;;;8.60;5.77;;;;;;;1.17;100.00;94034.56;4993555;28;20184;-68
2021/12/09 07:35:05;;;;;;;5.67;4.50;;;;;;;1.20;100.00;94028.44;4993811;28;20178;-68
2021/12/09 07:37:30;;;;;;;7.03;4.00;;;;;;;1.22;100.00;94025.38;4993135;28;20177;-68
2021/12/09 07:39:56;;;;;;;4.60;3.03;;;;;;;1.25;100.00;94024.63;4993869;28;20195;-69
2021/12/09 07:42:22;;;;;;;4.77;3.70;;;;;;;1.26;100.00;94026.94;4976999;28;20201;-68
2021/12/09 07:44:47;;;;;;;4.97;3.80;;;;;;;1.26;100.00;94021.56;4993201;28;20202;-68
2021/12/09 07:47:12;;;;;;;5.60;3.70;;;;;;;1.29;100.00;94031.56;4993037;28;20224;-66
2021/12/09 07:49:38;;;;;;;3.70;3.20;;;;;;;1.28;100.00;94040.00;4993406;28;20188;-61
2021/12/09 07:52:04;;;;;;;4.23;3.10;;;;;;;1.29;100.00;94036.16;4993838;28;20241;-61
2021/12/09 07:54:30;;;;;;;4.07;3.27;;;;;;;1.28;100.00;94046.16;4993707;28;20272;-61
2021/12/09 07:56:56;;;;;;;4.43;3.30;;;;;;;1.31;100.00;94040.00;4993062;28;20180;-60
2021/12/09 07:59:22;;;;;;;4.10;3.30;;;;;;;1.35;100.00;94046.16;4992742;28;20261;-60
2021/12/09 08:01:47;;;;;;;4.17;3.67;;;;;;;1.33;100.00;94048.47;4992845;28;20188;-61
2021/12/09 08:04:13;;;;;;;6.03;4.30;;;;;;;1.35;100.00;94054.22;4993052;28;20173;-69
2021/12/09 08:06:39;;;;;;;3.93;3.23;;;;;;;1.45;100.00;94056.22;4993123;28;20178;-62
2021/12/09 08:09:05;;;;;;;4.47;3.47;;;;;;;1.51;100.00;94060.09;4992907;28;20184;-70
2021/12/09 08:11:36;;;;;;;5.87;3.80;;;;;;;1.50;100.00;94074.69;4992838;28;20177;-72
2021/12/09 08:14:04;;;;;;;7.17;5.13;;;;;;;1.57;100.00;94085.44;4993471;28;20175;-70
2021/12/09 08:16:33;;;;;;;6.07;3.70;;;;;;;1.58;100.00;94097.75;4976625;28;20186;-71
2021/12/09 08:18:58;;;;;;;6.30;4.00;;;;;;;1.62;100.00;94089.69;4977909;28;20185;-70
2021/12/09 08:21:39;;;;;;;5.07;3.80;;;;;;;1.57;100.00;94096.19;4992180;28;20273;-69
2021/12/09 08:24:06;;;;;;;6.70;4.33;;;;;;;1.59;100.00;94104.69;4992571;28;20301;-68
2021/12/09 08:26:32;;;;;;;13.90;9.23;;;;;;;1.59;100.00;94112.75;4993125;28;20188;-63
2021/12/09 08:28:57;;;;;;;5.60;3.70;;;;;;;1.57;100.00;94114.28;4992907;28;20177;-63
2021/12/09 08:31:24;;;;;;;4.37;3.97;;;;;;;1.56;100.00;94116.19;4994064;28;20187;-66
2021/12/09 08:33:49;;;;;;;3.87;3.30;;;;;;;1.53;100.00;94106.19;4996450;28;20191;-63
2021/12/09 08:36:15;;;;;;;3.50;3.00;;;;;;;1.53;100.00;94106.19;4996950;28;20189;-62
2021/12/09 08:38:40;;;;;;;4.03;3.37;;;;;;;1.53;100.00;94097.34;4997561;28;20235;-63
2021/12/09 08:41:06;;;;;;;3.60;3.20;;;;;;;1.52;100.00;94099.25;4997645;28;20177;-60
2021/12/09 08:43:31;;;;;;;4.67;3.70;;;;;;;1.55;100.00;94106.59;4996055;28;20215;-62
2021/12/09 08:45:57;;;;;;;6.20;5.00;;;;;;;1.59;100.00;94104.69;4996555;28;20269;-64
2021/12/09 08:48:24;;;;;;;5.47;3.50;;;;;;;1.54;100.00;94107.75;4996140;28;20224;-63
2021/12/09 08:50:51;;;;;;;4.23;3.10;;;;;;;1.53;100.00;94111.56;4996340;28;20181;-68
2021/12/09 08:53:19;;;;;;;6.37;3.70;;;;;;;1.54;100.00;94113.13;4996118;28;20190;-62
2021/12/09 08:55:45;;;;;;;4.23;3.80;;;;;;;1.53;100.00;94127.69;4995983;28;20245;-67
2021/12/09 08:58:11;;;;;;;4.53;3.50;;;;;;;1.56;100.00;94131.56;4996500;28;20177;-64
2021/12/09 09:00:38;;;;;;;3.87;3.30;;;;;;;1.54;100.00;94129.25;4997524;28;20217;-71
2021/12/09 09:03:04;;;;;;;4.70;3.50;;;;;;;1.58;100.00;94138.09;4995744;28;20206;-68
2021/12/09 09:05:35;;;;;;;4.57;3.73;;;;;;;1.57;100.00;94141.94;4995977;28;20187;-68
2021/12/09 09:08:02;;;;;;;7.67;3.47;;;;;;;1.49;100.00;94136.91;4996251;28;20267;-70
2021/12/09 09:10:30;;;;;;;4.80;3.23;;;;;;;1.50;100.00;94139.22;4996346;28;20181;-72
2021/12/09 09:12:56;;;;;;;5.13;3.40;;;;;;;1.49;100.00;94143.03;4995785;28;20264;-70
2021/12/09 09:15:23;;;;;;;3.83;3.33;;;;;;;1.47;100.00;94147.25;4995791;28;20276;-72
2021/12/09 09:17:49;;;;;;;6.17;4.17;;;;;;;1.45;100.00;94157.63;4995629;28;20181;-70
2021/12/09 09:20:20;;;;;;;5.27;4.30;;;;;;;1.44;100.00;94162.22;4995955;28;20696;-69
2021/12/09 09:22:46;;;;;;;4.63;3.40;;;;;;;1.49;100.00;94164.56;4995608;28;20217;-60
2021/12/09 09:25:17;;;;;;;4.70;3.43;;;;;;;1.51;100.00;94159.59;4995392;28;20184;-59
2021/12/09 09:27:46;;;;;;;4.33;3.63;;;;;;;1.57;100.00;94160.75;4995941;28;20243;-61
2021/12/09 09:30:17;;;;;;;4.83;3.80;;;;;;;1.61;100.00;94161.56;4995500;28;20184;-58
2021/12/09 09:32:43;;;;;;;4.57;3.57;;;;;;;1.63;100.00;94164.63;4995426;28;20192;-60
2021/12/09 09:35:09;;;;;;;4.67;3.80;;;;;;;1.71;100.00;94158.13;4995554;28;20178;-59
2021/12/09 09:37:35;;;;;;;4.77;3.73;;;;;;;1.72;100.00;94154.31;4995414;28;20259;-66
2021/12/09 09:40:05;;;;;;;5.00;4.47;;;;;;;1.79;100.00;94151.63;4995355;28;20174;-62
2021/12/09 09:43:25;;;;;;;6.10;3.83;;;;;;;1.86;100.00;94151.66;4994986;28;20293;-62
2021/12/09 09:45:19;;;;;;;6.80;4.30;;;;;;;1.91;100.00;94150.53;4993851;28;20186;-61
2021/12/09 09:47:45;;;;;;;6.30;4.00;;;;;;;1.89;100.00;94156.31;4994541;28;20234;-61
2021/12/09 09:50:11;;;;;;;5.53;4.50;;;;;;;1.89;100.00;94150.16;4995585;28;20179;-62
2021/12/09 09:52:37;;;;;;;7.93;4.70;;;;;;;1.88;100.00;94154.75;4995485;28;20182;-63
2021/12/09 09:55:07;;;;;;;5.67;4.50;;;;;;;1.87;100.00;94158.63;4994975;28;20181;-63
2021/12/09 09:57:32;;;;;;;7.60;5.17;;;;;;;1.94;100.00;94164.03;4995519;28;20271;-66
2021/12/09 09:59:58;;;;;;;7.10;5.10;;;;;;;1.99;100.00;94166.34;4994374;28;20201;-59
2021/12/09 10:02:24;;;;;;;7.70;5.13;;;;;;;2.02;100.00;94170.19;4994873;28;20202;-59
2021/12/09 10:04:57;;;;;;;7.57;5.67;;;;;;;2.03;100.00;94172.50;4994839;28;20196;-59
2021/12/09 10:07:24;;;;;;;8.13;5.70;;;;;;;2.07;100.00;94170.59;4995315;28;20183;-58
2021/12/09 10:09:51;;;;;;;9.20;6.47;;;;;;;2.04;100.00;94163.28;4994717;28;20217;-59
2021/12/09 10:12:17;;;;;;;9.03;5.97;;;;;;;2.05;100.00;94162.16;4994943;28;20540;-59
2021/12/09 10:14:52;;;;;;;7.57;6.47;;;;;;;2.13;100.00;94166.41;4994711;28;20184;-66
2021/12/09 10:17:27;;;;;;;9.37;6.80;;;;;;;2.15;100.00;94163.34;4994618;28;20193;-66
2021/12/09 10:19:57;;;;;;;10.50;7.43;;;;;;;2.21;100.00;94159.88;4995060;28;20273;-66
2021/12/09 10:22:25;;;;;;;8.57;6.60;;;;;;;2.20;100.00;94165.66;4994154;28;20257;-66
2021/12/09 10:24:53;;;;;;;12.23;7.13;;;;;;;2.24;100.00;94164.50;4994783;28;20180;-66
2021/12/09 10:27:32;;;;;;;9.50;7.40;;;;;;;2.20;100.00;94166.44;4994829;28;20334;-64
2021/12/09 10:30:20;;;;;;;8.43;7.10;;;;;;;2.24;100.00;94161.81;4994356;28;20265;-64
2021/12/09 10:32:47;;;;;;;12.00;8.10;;;;;;;2.27;100.00;94165.66;4995006;28;20191;-65
2021/12/09 10:35:15;;;;;;;8.90;6.87;;;;;;;2.28;100.00;94167.97;4994278;28;20627;-68
2021/12/09 10:37:44;;;;;;;8.60;6.97;;;;;;;2.33;100.00;94162.22;4995521;28;20191;-68
2021/12/09 10:40:20;;;;;;;9.30;7.37;;;;;;;2.36;100.00;94157.97;4994122;28;20221;-69
2021/12/09 10:42:51;;;;;;;9.97;8.07;;;;;;;2.42;100.00;94168.03;4994766;28;20199;-68
2021/12/09 10:45:41;;;;;;;10.43;7.97;;;;;;;2.38;100.00;94166.47;4993925;28;20178;-70
2021/12/09 10:56:10;;;;;;;9.23;6.97;;;;;;;2.43;100.00;94180.34;4973249;28;20176;-63
2021/12/09 10:58:44;;;;;;;11.83;6.70;;;;;;;2.42;100.00;94170.72;4973670;28;20305;-64
2021/12/09 11:01:13;;;;;;;12.13;7.27;;;;;;;2.30;100.00;94175.69;4973573;28;20200;-63
2021/12/09 11:03:53;;;;;;;12.37;6.77;;;;;;;2.32;100.00;94166.06;4973475;28;20235;-65
2021/12/09 11:06:21;;;;;;;8.90;6.40;;;;;;;2.31;100.00;94180.69;4973914;28;20221;-63
2021/12/09 11:08:54;;;;;;;10.23;6.53;;;;;;;2.37;100.00;94170.31;4973316;28;20190;-65
2021/12/09 11:11:24;;;;;;;11.97;7.33;;;;;;;2.41;100.00;94184.56;4973854;28;20215;-56
2021/12/09 11:13:54;;;;;;;10.60;7.00;;;;;;;2.43;100.00;94180.34;4973303;28;20188;-54
2021/12/09 11:16:42;;;;;;;12.57;7.30;;;;;;;2.44;100.00;94171.09;4973232;28;20230;-57
2021/12/09 11:19:15;;;;;;;11.33;6.73;;;;;;;2.37;100.00;94165.69;4974433;28;20250;-55
2021/12/09 11:21:57;;;;;;;9.43;6.97;;;;;;;2.37;100.00;94171.06;4994154;28;20187;-56
2021/12/09 11:24:27;;;;;;;9.47;6.23;;;;;;;2.40;100.00;94174.91;4994026;28;20244;-58
2021/12/09 11:26:59;;;;;;;13.20;7.23;;;;;;;2.39;100.00;94171.47;4993554;28;20243;-68
2021/12/09 11:29:47;;;;;;;12.13;6.73;;;;;;;2.32;100.00;94179.53;4993185;28;20653;-60
2021/12/09 11:32:45;;;;;;;10.07;6.37;;;;;;;2.33;100.00;94180.31;4954243;29;20212;-69
2021/12/09 11:35:20;;;;;;;10.50;6.23;;;;;;;2.39;100.00;94184.94;4938331;29;20188;-67
2021/12/09 11:37:56;;;;;;;8.30;6.77;;;;;;;2.49;100.00;94184.22;4938002;29;20173;-69
2021/12/09 11:40:41;;;;;;;10.60;6.27;;;;;;;2.50;100.00;94180.34;4938155;29;20191;-69
2021/12/09 11:43:10;;;;;;;8.77;5.90;;;;;;;2.45;100.00;94188.78;4937886;29;20209;-69
2021/12/09 11:45:46;;;;;;;10.47;5.80;;;;;;;2.40;100.00;94191.88;4938214;29;20259;-60